createdAt,value
2023-08-13T00:00:43.086Z,39.05
2023-08-13T00:03:09.730Z,35.55
2023-08-13T00:05:36.488Z,38.88
2023-08-13T00:08:02.925Z,36.63
2023-08-13T00:10:29.395Z,36.35
2023-08-13T00:12:55.906Z,35.92
2023-08-13T00:15:22.620Z,36.05
2023-08-13T00:17:49.083Z,37.08
2023-08-13T00:20:16.202Z,36.05
2023-08-13T00:22:42.892Z,36.25
2023-08-13T00:25:09.711Z,35.15
2023-08-13T00:27:36.185Z,35.80
2023-08-13T00:30:02.687Z,36.50
2023-08-13T00:32:29.174Z,36.35
2023-08-13T00:34:55.854Z,36.80
2023-08-13T00:37:22.356Z,35.60
2023-08-13T00:39:48.837Z,37.25
2023-08-13T00:42:15.583Z,39.13
2023-08-13T00:44:42.280Z,36.90
2023-08-13T00:47:10.503Z,37.40
2023-08-13T00:49:36.984Z,36.30
2023-08-13T00:52:03.607Z,41.92
2023-08-13T00:54:30.918Z,36.60
2023-08-13T00:56:57.640Z,36.60
2023-08-13T00:59:25.060Z,37.38
2023-08-13T01:01:51.991Z,37.58
2023-08-13T01:04:18.830Z,41.17
2023-08-13T01:07:12.978Z,37.75
2023-08-13T01:09:57.494Z,36.65
2023-08-13T01:12:38.703Z,37.38
2023-08-13T01:15:12.679Z,37.38
2023-08-13T01:17:40.834Z,38.60
2023-08-13T01:20:10.542Z,37.67
2023-08-13T01:22:46.698Z,36.78
2023-08-13T01:25:14.594Z,36.70
2023-08-13T01:27:57.907Z,37.25
2023-08-13T01:30:34.205Z,38.17
2023-08-13T01:33:04.478Z,42.25
2023-08-13T01:38:00.827Z,37.33
2023-08-13T01:40:27.961Z,42.08
2023-08-13T01:42:54.597Z,38.83
2023-08-13T01:45:21.150Z,38.22
2023-08-13T01:47:48.477Z,38.80
2023-08-13T01:50:15.096Z,37.88
2023-08-13T01:52:41.529Z,36.78
2023-08-13T01:55:08.787Z,37.15
2023-08-13T01:57:35.630Z,38.03
2023-08-13T02:00:02.123Z,38.53
2023-08-13T02:02:28.758Z,42.53
2023-08-13T02:04:55.352Z,40.30
2023-08-13T02:07:21.837Z,38.65
2023-08-13T02:09:48.334Z,38.35
2023-08-13T02:12:14.867Z,38.08
2023-08-13T02:14:41.714Z,38.42
2023-08-13T02:17:13.756Z,45.83
2023-08-13T02:19:41.254Z,37.85
2023-08-13T02:22:08.657Z,36.90
2023-08-13T02:24:35.132Z,37.60
2023-08-13T02:27:01.609Z,39.22
2023-08-13T02:29:28.274Z,37.75
2023-08-13T02:31:54.820Z,37.63
2023-08-13T02:34:23.523Z,36.63
2023-08-13T02:36:50.153Z,41.72
2023-08-13T02:39:16.575Z,36.03
2023-08-13T02:41:43.040Z,39.72
2023-08-13T02:44:09.554Z,36.00
2023-08-13T02:46:36.109Z,36.85
2023-08-13T02:49:02.650Z,36.33
2023-08-13T02:51:29.122Z,44.33
2023-08-13T02:53:55.708Z,37.15
2023-08-13T02:56:22.185Z,37.80
2023-08-13T02:58:48.676Z,38.00
2023-08-13T03:01:15.235Z,34.70
2023-08-13T03:03:52.084Z,35.08
2023-08-13T03:06:23.584Z,36.00
2023-08-13T03:08:50.161Z,35.55
2023-08-13T03:11:16.736Z,36.08
2023-08-13T03:13:43.635Z,36.22
2023-08-13T03:16:10.294Z,37.22
2023-08-13T03:18:37.105Z,35.03
2023-08-13T03:21:03.617Z,35.80
2023-08-13T03:23:30.475Z,36.45
2023-08-13T03:25:57.131Z,36.75
2023-08-13T03:28:23.966Z,39.58
2023-08-13T03:30:50.443Z,37.05
2023-08-13T03:33:16.897Z,36.00
2023-08-13T03:35:43.975Z,36.28
2023-08-13T03:38:10.656Z,35.58
2023-08-13T03:40:40.960Z,35.70
2023-08-13T03:43:07.512Z,35.83
2023-08-13T03:45:34.048Z,37.25
2023-08-13T03:48:00.643Z,36.05
2023-08-13T03:50:27.186Z,36.20
2023-08-13T03:52:53.644Z,36.53
2023-08-13T03:55:20.088Z,36.72
2023-08-13T03:57:46.577Z,37.28
2023-08-13T04:00:13.619Z,38.38
2023-08-13T04:02:40.721Z,35.67
2023-08-13T04:05:07.992Z,40.35
2023-08-13T04:07:34.467Z,45.75
2023-08-13T04:10:00.948Z,36.97
2023-08-13T04:12:27.433Z,36.28
2023-08-13T04:14:53.859Z,36.95
2023-08-13T04:17:20.321Z,36.22
2023-08-13T04:19:46.782Z,36.22
2023-08-13T04:22:13.969Z,36.05
2023-08-13T04:24:41.076Z,37.47
2023-08-13T04:27:07.600Z,35.55
2023-08-13T04:29:34.115Z,40.95
2023-08-13T04:32:00.603Z,41.80
2023-08-13T04:34:27.173Z,39.08
2023-08-13T04:36:53.632Z,35.13
2023-08-13T04:39:20.118Z,34.75
2023-08-13T04:41:46.625Z,34.83
2023-08-13T04:44:13.096Z,34.13
2023-08-13T04:46:39.771Z,34.00
2023-08-13T04:49:06.563Z,39.05
2023-08-13T04:51:32.995Z,34.13
2023-08-13T04:53:59.468Z,33.72
2023-08-13T04:56:25.954Z,40.90
2023-08-13T04:58:52.535Z,32.08
2023-08-13T05:01:19.120Z,34.00
2023-08-13T05:03:45.908Z,34.38
2023-08-13T05:06:12.447Z,32.28
2023-08-13T05:08:38.999Z,37.28
2023-08-13T05:11:05.902Z,28.60
2023-08-13T05:13:32.390Z,26.98
2023-08-13T05:15:58.917Z,37.58
2023-08-13T05:19:11.901Z,26.08
2023-08-13T05:21:43.565Z,26.60
2023-08-13T05:24:10.061Z,29.55
2023-08-13T05:26:36.673Z,25.17
2023-08-13T05:29:04.271Z,27.58
2023-08-13T05:31:31.326Z,20.40
2023-08-13T05:34:01.020Z,21.67
2023-08-13T05:36:27.668Z,23.10
2023-08-13T05:38:54.234Z,20.95
2023-08-13T05:41:20.791Z,22.00
2023-08-13T05:43:47.289Z,21.58
2023-08-13T05:46:13.946Z,25.83
2023-08-13T05:48:40.759Z,19.98
2023-08-13T05:51:07.261Z,16.85
2023-08-13T05:53:33.729Z,22.02
2023-08-13T05:56:01.263Z,20.15
2023-08-13T05:58:27.776Z,16.67
2023-08-13T06:00:54.249Z,24.75
2023-08-13T06:03:20.857Z,21.10
2023-08-13T06:05:48.624Z,24.67
2023-08-13T06:08:15.235Z,25.90
2023-08-13T06:10:41.815Z,22.90
2023-08-13T06:13:08.313Z,19.90
2023-08-13T06:15:34.778Z,15.68
2023-08-13T06:18:01.344Z,17.48
2023-08-13T06:20:27.973Z,19.75
2023-08-13T06:22:54.660Z,18.20
2023-08-13T06:25:21.267Z,18.35
2023-08-13T06:27:47.742Z,23.83
2023-08-13T06:30:14.273Z,18.58
2023-08-13T06:32:41.066Z,19.15
2023-08-13T06:35:07.905Z,13.60
2023-08-13T06:37:38.982Z,21.05
2023-08-13T06:40:13.777Z,22.47
2023-08-13T06:42:40.229Z,18.52
2023-08-13T06:45:07.551Z,24.60
2023-08-13T06:47:34.109Z,20.80
2023-08-13T06:50:00.611Z,16.45
2023-08-13T06:52:27.238Z,20.00
2023-08-13T06:54:53.736Z,25.17
2023-08-13T06:57:20.199Z,16.98
2023-08-13T06:59:46.760Z,17.83
2023-08-13T07:02:13.467Z,22.05
2023-08-13T07:04:40.277Z,19.65
2023-08-13T07:07:07.229Z,20.13
2023-08-13T07:09:35.066Z,19.50
2023-08-13T07:12:02.075Z,17.00
2023-08-13T07:14:28.643Z,22.73
2023-08-13T07:16:55.060Z,28.52
2023-08-13T07:19:21.679Z,16.67
2023-08-13T07:21:48.140Z,17.52
2023-08-13T07:24:14.678Z,21.83
2023-08-13T07:26:41.186Z,19.55
2023-08-13T07:29:08.662Z,23.85
2023-08-13T07:31:38.979Z,18.33
2023-08-13T07:34:05.946Z,18.63
2023-08-13T07:36:32.779Z,15.90
2023-08-13T07:38:59.380Z,18.08
2023-08-13T07:41:26.209Z,23.35
2023-08-13T07:43:53.304Z,22.67
2023-08-13T07:46:20.381Z,20.85
2023-08-13T07:48:46.936Z,22.80
2023-08-13T07:51:13.428Z,18.13
2023-08-13T07:53:39.947Z,18.90
2023-08-13T07:56:06.533Z,20.95
2023-08-13T07:58:33.146Z,24.63
2023-08-13T08:00:59.683Z,19.67
2023-08-13T08:03:26.354Z,16.63
2023-08-13T08:05:54.056Z,23.42
2023-08-13T08:08:20.594Z,17.10
2023-08-13T08:10:47.070Z,20.80
2023-08-13T08:13:13.852Z,19.65
2023-08-13T08:15:40.701Z,19.60
2023-08-13T08:18:07.695Z,18.52
2023-08-13T08:20:34.397Z,14.88
2023-08-13T08:23:00.973Z,19.92
2023-08-13T08:25:27.796Z,20.52
2023-08-13T08:27:54.558Z,14.98
2023-08-13T08:30:21.299Z,24.00
2023-08-13T08:32:48.112Z,16.17
2023-08-13T08:35:15.256Z,18.40
2023-08-13T08:37:41.789Z,17.27
2023-08-13T08:40:08.823Z,15.35
2023-08-13T08:42:37.797Z,13.48
2023-08-13T08:45:05.664Z,19.85
2023-08-13T08:47:34.698Z,23.00
2023-08-13T08:50:05.092Z,16.10
2023-08-13T08:52:35.453Z,15.30
2023-08-13T08:55:04.020Z,16.67
2023-08-13T08:57:30.551Z,22.13
2023-08-13T08:59:57.122Z,18.73
2023-08-13T09:02:23.968Z,25.17
2023-08-13T09:04:50.598Z,19.70
2023-08-13T09:07:17.092Z,20.88
2023-08-13T09:09:45.460Z,18.20
2023-08-13T09:12:11.998Z,19.00
2023-08-13T09:14:38.600Z,14.63
2023-08-13T09:17:05.221Z,20.38
2023-08-13T09:19:33.446Z,15.90
2023-08-13T09:22:04.572Z,13.55
2023-08-13T09:24:34.013Z,19.15
2023-08-13T09:27:01.810Z,16.05
2023-08-13T09:29:30.468Z,15.07
2023-08-13T09:32:00.886Z,18.13
2023-08-13T09:34:28.765Z,17.75
2023-08-13T09:36:56.817Z,16.15
2023-08-13T09:39:24.829Z,14.43
2023-08-13T09:41:52.688Z,14.68
2023-08-13T09:44:21.334Z,17.27
2023-08-13T09:47:01.989Z,17.60
2023-08-13T09:49:31.603Z,16.92
2023-08-13T09:54:37.847Z,14.73
2023-08-13T09:57:07.962Z,14.93
2023-08-13T09:59:36.061Z,14.85
2023-08-13T10:02:07.704Z,15.32
2023-08-13T10:04:39.229Z,11.23
2023-08-13T10:07:06.823Z,14.40
2023-08-13T10:09:34.819Z,13.38
2023-08-13T10:12:02.508Z,15.35
2023-08-13T10:14:29.940Z,15.00
2023-08-13T10:16:56.560Z,13.18
2023-08-13T10:19:35.524Z,11.70
2023-08-13T10:22:02.603Z,17.15
2023-08-13T10:24:30.361Z,10.98
2023-08-13T10:26:59.254Z,11.43
2023-08-13T10:29:35.006Z,12.18
2023-08-13T10:32:10.924Z,12.50
2023-08-13T10:34:41.032Z,11.88
2023-08-13T10:37:19.550Z,10.70
2023-08-13T10:39:48.076Z,11.52
2023-08-13T10:42:38.968Z,13.57
2023-08-13T10:45:10.979Z,13.63
2023-08-13T10:47:48.496Z,15.57
2023-08-13T10:50:26.902Z,12.90
2023-08-13T10:52:55.724Z,13.75
2023-08-13T10:55:25.938Z,11.90
2023-08-13T10:57:54.008Z,14.75
2023-08-13T11:00:25.466Z,13.57
2023-08-13T11:02:53.776Z,13.20
2023-08-13T11:05:22.200Z,11.93
2023-08-13T11:07:48.973Z,14.63
2023-08-13T11:10:20.355Z,13.40
2023-08-13T11:12:48.710Z,15.10
2023-08-13T11:15:16.622Z,12.50
2023-08-13T11:17:48.162Z,12.60
2023-08-13T11:20:18.367Z,12.20
2023-08-13T11:22:45.101Z,13.95
2023-08-13T11:25:12.057Z,14.05
2023-08-13T11:27:39.819Z,14.20
2023-08-13T11:30:09.464Z,12.90
2023-08-13T11:32:40.009Z,10.80
2023-08-13T11:35:10.749Z,14.27
2023-08-13T11:37:38.412Z,13.63
2023-08-13T11:40:07.446Z,12.23
2023-08-13T11:42:34.366Z,13.10
2023-08-13T11:45:04.428Z,13.48
2023-08-13T11:47:31.002Z,10.75
2023-08-13T11:50:00.111Z,13.82
2023-08-13T11:52:26.770Z,13.18
2023-08-13T11:54:53.525Z,12.50
2023-08-13T11:57:21.189Z,12.40
2023-08-13T11:59:49.947Z,14.30
2023-08-13T12:02:19.247Z,13.93
2023-08-13T12:04:48.204Z,14.88
2023-08-13T12:07:14.819Z,11.13
2023-08-13T12:09:41.337Z,13.23
2023-08-13T12:12:08.063Z,11.02
2023-08-13T12:14:42.721Z,10.25
2023-08-13T12:17:09.154Z,15.68
2023-08-13T12:19:35.640Z,9.98
2023-08-13T12:22:02.101Z,11.38
2023-08-13T12:24:28.647Z,12.10
2023-08-13T12:26:55.251Z,11.13
2023-08-13T12:29:21.769Z,11.07
2023-08-13T12:31:48.441Z,10.57
2023-08-13T12:34:14.866Z,10.77
2023-08-13T12:36:41.326Z,11.90
2023-08-13T12:39:07.888Z,13.30
2023-08-13T12:41:39.835Z,10.55
2023-08-13T12:44:08.333Z,13.30
2023-08-13T12:46:34.850Z,11.50
2023-08-13T12:49:01.392Z,11.13
2023-08-13T12:51:28.035Z,10.52
2023-08-13T12:53:54.472Z,10.70
2023-08-13T12:56:21.805Z,13.95
2023-08-13T12:58:49.510Z,10.85
2023-08-13T13:01:16.011Z,10.80
2023-08-13T13:03:42.553Z,10.25
2023-08-13T13:06:09.022Z,13.23
2023-08-13T13:08:35.466Z,12.27
2023-08-13T13:11:02.596Z,12.63
2023-08-13T13:13:29.537Z,11.85
2023-08-13T13:15:56.161Z,11.98
2023-08-13T13:18:22.805Z,10.10
2023-08-13T13:20:49.544Z,10.27
2023-08-13T13:23:16.017Z,13.20
2023-08-13T13:25:42.476Z,12.80
2023-08-13T13:28:09.928Z,13.02
2023-08-13T13:30:36.433Z,12.52
2023-08-13T13:33:03.444Z,10.45
2023-08-13T13:35:30.075Z,10.43
2023-08-13T13:37:57.447Z,10.30
2023-08-13T13:40:25.916Z,13.32
2023-08-13T13:42:53.185Z,11.60
2023-08-13T13:45:20.448Z,10.55
2023-08-13T13:47:47.329Z,12.93
2023-08-13T13:50:16.994Z,11.82
2023-08-13T13:55:10.401Z,12.40
2023-08-13T13:57:37.318Z,12.50
2023-08-13T14:00:07.908Z,11.60
2023-08-13T14:02:35.197Z,12.80
2023-08-13T14:05:02.385Z,12.82
2023-08-13T14:07:28.862Z,12.02
2023-08-13T14:09:55.360Z,9.75
2023-08-13T14:12:22.276Z,12.27
2023-08-13T14:14:48.742Z,11.55
2023-08-13T14:17:15.265Z,12.25
2023-08-13T14:19:43.098Z,10.25
2023-08-13T14:22:09.924Z,10.07
2023-08-13T14:24:36.845Z,12.07
2023-08-13T14:27:03.296Z,12.80
2023-08-13T14:29:30.379Z,13.23
2023-08-13T14:31:57.005Z,13.02
2023-08-13T14:34:23.582Z,11.90
2023-08-13T14:36:50.038Z,12.68
2023-08-13T14:39:16.857Z,12.85
2023-08-13T14:41:43.389Z,10.75
2023-08-13T14:44:10.080Z,10.80
2023-08-13T14:46:36.723Z,12.63
2023-08-13T14:49:03.301Z,12.52
2023-08-13T14:51:30.105Z,12.40
2023-08-13T14:53:57.050Z,9.95
2023-08-13T14:56:23.749Z,10.80
2023-08-13T14:58:50.965Z,12.25
2023-08-13T15:01:17.687Z,12.60
2023-08-13T15:03:44.366Z,12.10
2023-08-13T15:06:11.083Z,12.38
2023-08-13T15:08:37.827Z,11.80
2023-08-13T15:11:04.429Z,12.57
2023-08-13T15:13:31.037Z,10.25
2023-08-13T15:15:57.796Z,9.65
2023-08-13T15:18:24.410Z,12.98
2023-08-13T15:20:51.354Z,9.95
2023-08-13T15:23:19.114Z,9.98
2023-08-13T15:28:19.986Z,12.40
2023-08-13T15:30:46.521Z,12.20
2023-08-13T15:33:13.118Z,10.63
2023-08-13T15:35:51.562Z,10.45
2023-08-13T15:38:20.354Z,10.13
2023-08-13T15:40:49.001Z,10.75
2023-08-13T15:43:15.495Z,10.80
2023-08-13T15:45:41.991Z,10.40
2023-08-13T15:48:08.538Z,10.93
2023-08-13T15:50:35.654Z,12.15
2023-08-13T15:53:03.323Z,10.93
2023-08-13T15:55:30.059Z,11.55
2023-08-13T15:57:56.554Z,10.80
2023-08-13T16:00:23.169Z,10.63
2023-08-13T16:02:50.818Z,10.90
2023-08-13T16:05:17.548Z,11.35
2023-08-13T16:07:45.529Z,10.57
2023-08-13T16:10:12.025Z,10.40
2023-08-13T16:12:38.503Z,10.50
2023-08-13T16:15:10.996Z,11.55
2023-08-13T16:17:41.147Z,10.45
2023-08-13T16:20:12.657Z,11.23
2023-08-13T16:22:42.268Z,10.90
2023-08-13T16:25:09.931Z,11.57
2023-08-13T16:27:36.757Z,10.50
2023-08-13T16:30:04.789Z,9.57
2023-08-13T16:32:31.564Z,10.05
2023-08-13T16:34:58.120Z,9.55
2023-08-13T16:37:24.566Z,10.40
2023-08-13T16:39:51.044Z,11.07
2023-08-13T16:42:18.109Z,10.90
2023-08-13T16:44:44.891Z,10.38
2023-08-13T16:47:11.374Z,9.85
2023-08-13T16:49:37.957Z,10.60
2023-08-13T16:52:04.698Z,10.32
2023-08-13T16:54:31.092Z,10.18
2023-08-13T16:56:57.619Z,10.32
2023-08-13T16:59:24.162Z,10.43
2023-08-13T17:01:50.650Z,10.45
2023-08-13T17:04:17.158Z,10.68
2023-08-13T17:06:43.847Z,10.20
2023-08-13T17:09:10.543Z,9.85
2023-08-13T17:11:36.980Z,10.18
2023-08-13T17:14:03.545Z,10.35
2023-08-13T17:16:30.119Z,9.70
2023-08-13T17:18:56.654Z,9.73
2023-08-13T17:21:23.123Z,10.40
2023-08-13T17:23:49.539Z,9.35
2023-08-13T17:26:16.039Z,9.70
2023-08-13T17:28:42.759Z,9.52
2023-08-13T17:31:09.253Z,10.55
2023-08-13T17:33:35.760Z,9.98
2023-08-13T17:36:02.289Z,9.55
2023-08-13T17:38:28.760Z,9.23
2023-08-13T17:40:55.294Z,9.50
2023-08-13T17:43:21.876Z,9.13
2023-08-13T17:45:48.428Z,10.50
2023-08-13T17:48:16.496Z,9.80
2023-08-13T17:50:44.475Z,10.70
2023-08-13T17:53:12.641Z,10.20
2023-08-13T17:55:39.092Z,9.60
2023-08-13T17:58:05.563Z,10.82
2023-08-13T18:00:32.064Z,10.25
2023-08-13T18:02:58.655Z,10.40
2023-08-13T18:05:25.561Z,10.00
2023-08-13T18:07:58.370Z,10.55
2023-08-13T18:10:31.025Z,10.00
2023-08-13T18:12:57.561Z,10.45
2023-08-13T18:15:24.513Z,11.43
2023-08-13T18:17:51.284Z,10.73
2023-08-13T18:20:18.268Z,10.70
2023-08-13T18:22:45.041Z,11.80
2023-08-13T18:25:12.748Z,10.90
2023-08-13T18:27:41.081Z,10.95
2023-08-13T18:30:08.227Z,11.27
2023-08-13T18:32:34.828Z,12.60
2023-08-13T18:35:01.429Z,12.88
2023-08-13T18:37:27.921Z,24.95
2023-08-13T18:39:58.078Z,19.67
2023-08-13T18:42:24.641Z,16.13
2023-08-13T18:44:51.321Z,17.45
2023-08-13T18:47:17.847Z,15.73
2023-08-13T18:49:44.368Z,15.23
2023-08-13T18:52:10.995Z,14.90
2023-08-13T18:54:37.463Z,17.08
2023-08-13T18:57:04.076Z,13.30
2023-08-13T18:59:30.854Z,12.18
2023-08-13T19:01:57.601Z,12.52
2023-08-13T19:04:24.131Z,11.05
2023-08-13T19:06:50.642Z,10.50
2023-08-13T19:09:17.087Z,11.52
2023-08-13T19:11:43.684Z,17.20
2023-08-13T19:14:11.489Z,13.90
2023-08-13T19:16:38.650Z,13.40
2023-08-13T19:19:05.931Z,13.32
2023-08-13T19:21:32.627Z,13.52
2023-08-13T19:23:59.098Z,13.13
2023-08-13T19:26:26.091Z,13.70
2023-08-13T19:28:53.222Z,13.70
2023-08-13T19:31:19.762Z,14.90
2023-08-13T19:33:46.216Z,14.27
2023-08-13T19:36:13.761Z,13.27
2023-08-13T19:38:40.731Z,14.63
2023-08-13T19:41:07.364Z,14.50
2023-08-13T19:43:34.048Z,13.82
2023-08-13T19:46:00.825Z,14.20
2023-08-13T19:48:27.316Z,17.65
2023-08-13T19:50:54.456Z,13.57
2023-08-13T19:53:21.680Z,13.48
2023-08-13T19:55:50.497Z,14.95
2023-08-13T19:58:17.859Z,17.05
2023-08-13T20:00:44.526Z,13.38
2023-08-13T20:03:11.594Z,14.55
2023-08-13T20:05:38.167Z,14.45
2023-08-13T20:08:05.211Z,16.40
2023-08-13T20:10:32.941Z,14.95
2023-08-13T20:12:59.929Z,16.77
2023-08-13T20:15:27.096Z,15.80
2023-08-13T20:17:56.927Z,21.90
2023-08-13T20:20:23.433Z,17.48
2023-08-13T20:22:49.975Z,15.85
2023-08-13T20:25:17.048Z,15.23
2023-08-13T20:27:43.490Z,17.60
2023-08-13T20:30:10.368Z,15.70
2023-08-13T20:32:37.322Z,19.67
2023-08-13T20:35:04.514Z,15.98
2023-08-13T20:37:31.490Z,16.73
2023-08-13T20:39:58.788Z,15.68
2023-08-13T20:42:26.249Z,15.30
2023-08-13T20:44:52.894Z,19.55
2023-08-13T20:47:19.370Z,17.98
2023-08-13T20:49:46.047Z,15.40
2023-08-13T20:52:12.620Z,20.85
2023-08-13T20:54:39.076Z,16.35
2023-08-13T20:57:05.806Z,16.85
2023-08-13T20:59:32.275Z,15.90
2023-08-13T21:01:58.721Z,15.05
2023-08-13T21:04:25.213Z,20.33
2023-08-13T21:06:51.728Z,19.25
2023-08-13T21:09:18.274Z,15.65
2023-08-13T21:11:45.010Z,15.15
2023-08-13T21:14:11.501Z,17.08
2023-08-13T21:16:37.987Z,16.20
2023-08-13T21:19:04.452Z,16.23
2023-08-13T21:21:30.918Z,16.88
2023-08-13T21:23:57.440Z,20.25
2023-08-13T21:26:25.169Z,21.40
2023-08-13T21:28:51.991Z,15.90
2023-08-13T21:31:18.615Z,18.85
2023-08-13T21:33:45.069Z,18.13
2023-08-13T21:36:11.581Z,15.80
2023-08-13T21:38:38.066Z,16.67
2023-08-13T21:41:04.861Z,16.77
2023-08-13T21:43:31.326Z,16.75
2023-08-13T21:45:57.787Z,16.92
2023-08-13T21:48:24.254Z,18.20
2023-08-13T21:50:50.704Z,19.42
2023-08-13T21:53:17.216Z,18.15
2023-08-13T21:55:43.851Z,19.67
2023-08-13T21:58:10.347Z,18.45
2023-08-13T22:00:36.831Z,17.70
2023-08-13T22:03:04.230Z,18.42
2023-08-13T22:05:31.797Z,17.55
2023-08-13T22:07:58.235Z,16.67
2023-08-13T22:10:24.689Z,16.55
2023-08-13T22:12:51.128Z,17.88
2023-08-13T22:15:17.605Z,17.17
2023-08-13T22:17:44.094Z,21.30
2023-08-13T22:20:10.778Z,17.33
2023-08-13T22:22:37.276Z,20.10
2023-08-13T22:25:05.243Z,18.27
2023-08-13T22:27:31.829Z,17.77
2023-08-13T22:29:58.386Z,23.15
2023-08-13T22:32:25.103Z,17.52
2023-08-13T22:34:52.194Z,18.50
2023-08-13T22:37:18.731Z,17.92
2023-08-13T22:39:45.170Z,18.33
2023-08-13T22:42:11.652Z,19.02
2023-08-13T22:44:38.140Z,19.75
2023-08-13T22:47:04.844Z,19.90
2023-08-13T22:49:32.609Z,18.90
2023-08-13T22:51:59.205Z,20.27
2023-08-13T22:54:25.960Z,20.17
2023-08-13T22:56:52.563Z,18.98
2023-08-13T22:59:19.079Z,22.63
2023-08-13T23:01:45.649Z,20.33
2023-08-13T23:04:12.662Z,18.70
2023-08-13T23:06:39.309Z,19.05
2023-08-13T23:09:07.423Z,18.88
2023-08-13T23:11:33.944Z,18.00
2023-08-13T23:14:00.591Z,19.42
2023-08-13T23:16:27.240Z,18.33
2023-08-13T23:18:53.689Z,18.38
2023-08-13T23:21:20.144Z,19.35
2023-08-13T23:23:46.606Z,17.92
2023-08-13T23:26:13.132Z,18.10
2023-08-13T23:28:40.926Z,19.85
2023-08-13T23:31:07.464Z,20.10
2023-08-13T23:33:33.993Z,18.48
2023-08-13T23:36:00.427Z,18.92
2023-08-13T23:38:26.924Z,18.23
2023-08-13T23:40:53.406Z,20.17
2023-08-13T23:43:19.851Z,19.48
2023-08-13T23:45:48.531Z,22.90
2023-08-13T23:48:15.239Z,20.17
2023-08-13T23:50:54.060Z,18.55
2023-08-13T23:55:48.523Z,22.63
2023-08-13T23:58:15.064Z,20.83
